Time;durP1;ratioP1;P1;durP2;ratioP2;P2;SDS_P1;SDS_P2;PMS_P1;PMS_P2;Temp;Humidity;BMP_temperature;BMP_pressure;BME280_temperature;BME280_humidity;BME280_pressure;Samples;Min_cycle;Max_cycle;Signal;HPM_P1;HPM_P2
2023/07/25 00:02:16;;;;;;;9.55;4.95;;;;;;;13.71;100.00;100564.31;5310170;28;20039;-66
2023/07/25 00:04:48;;;;;;;8.05;5.05;;;;;;;13.62;100.00;100565.19;5307220;28;20019;-66
2023/07/25 00:07:19;;;;;;;10.63;5.25;;;;;;;13.60;100.00;100561.81;5310382;28;20431;-66
2023/07/25 00:09:51;;;;;;;11.05;5.22;;;;;;;13.58;100.00;100565.63;5306370;27;20499;-66
2023/07/25 00:12:23;;;;;;;9.00;5.10;;;;;;;13.50;100.00;100564.50;5307745;28;20024;-66
2023/07/25 00:14:55;;;;;;;8.43;5.05;;;;;;;13.48;100.00;100555.75;5309244;27;20375;-66
2023/07/25 00:17:26;;;;;;;8.10;5.25;;;;;;;13.55;100.00;100564.06;5309687;28;20024;-67
2023/07/25 00:19:57;;;;;;;7.45;4.50;;;;;;;13.49;100.00;100564.63;5309319;28;20031;-66
2023/07/25 00:22:29;;;;;;;7.13;4.40;;;;;;;13.46;100.00;100568.47;5311114;28;20020;-66
2023/07/25 00:25:00;;;;;;;8.77;4.82;;;;;;;13.29;100.00;100566.47;5306274;28;20065;-66
2023/07/25 00:27:32;;;;;;;7.80;4.97;;;;;;;13.40;100.00;100568.16;5304768;28;20777;-66
2023/07/25 00:30:04;;;;;;;10.02;5.10;;;;;;;13.36;100.00;100564.91;5309575;28;20544;-66
2023/07/25 00:32:35;;;;;;;8.20;4.97;;;;;;;13.30;100.00;100560.13;5311611;28;20046;-67
2023/07/25 00:35:07;;;;;;;11.00;5.22;;;;;;;13.36;100.00;100558.72;5310460;28;20031;-66
2023/07/25 00:37:38;;;;;;;9.65;5.18;;;;;;;13.22;100.00;100554.63;5306751;28;20346;-66
2023/07/25 00:40:10;;;;;;;8.35;4.70;;;;;;;13.26;100.00;100559.53;5307467;27;20033;-66
2023/07/25 00:42:41;;;;;;;9.02;5.03;;;;;;;13.14;100.00;100560.69;5307875;28;20031;-66
2023/07/25 00:45:13;;;;;;;10.65;5.00;;;;;;;13.19;100.00;100563.75;5305379;27;20054;-66
2023/07/25 00:47:44;;;;;;;12.18;5.30;;;;;;;13.13;100.00;100559.84;5308614;28;20035;-67
2023/07/25 00:50:16;;;;;;;7.97;5.22;;;;;;;13.24;100.00;100558.00;5309549;28;20035;-67
2023/07/25 00:52:48;;;;;;;8.68;5.22;;;;;;;13.18;100.00;100559.41;5306723;28;20096;-66
2023/07/25 00:55:19;;;;;;;9.00;4.82;;;;;;;13.00;100.00;100561.09;5307402;28;20381;-66
2023/07/25 00:57:51;;;;;;;9.02;4.70;;;;;;;13.16;100.00;100557.88;5305265;28;20115;-66
2023/07/25 01:00:22;;;;;;;9.52;5.30;;;;;;;13.07;100.00;100556.88;5307393;28;20038;-66
2023/07/25 01:02:53;;;;;;;10.95;5.10;;;;;;;13.06;100.00;100564.06;5310689;28;20022;-67
2023/07/25 01:05:28;;;;;;;8.13;5.15;;;;;;;13.14;100.00;100561.53;5309277;28;20029;-66
2023/07/25 01:07:59;;;;;;;9.15;5.10;;;;;;;13.16;100.00;100561.38;5281862;28;20047;-66
2023/07/25 01:10:32;;;;;;;9.55;5.18;;;;;;;13.18;100.00;100554.06;5285262;28;20051;-66
2023/07/25 01:13:04;;;;;;;10.23;5.05;;;;;;;13.07;100.00;100551.50;5287060;28;20040;-66
2023/07/25 01:15:36;;;;;;;8.52;4.93;;;;;;;13.03;100.00;100550.94;5301431;28;20031;-66
2023/07/25 01:18:08;;;;;;;9.75;5.32;;;;;;;13.25;100.00;100554.31;5285490;28;20064;-66
2023/07/25 01:20:40;;;;;;;9.38;5.35;;;;;;;13.20;100.00;100562.78;5289016;28;20043;-66
2023/07/25 01:23:13;;;;;;;8.80;5.47;;;;;;;13.20;100.00;100554.75;5286615;28;20449;-66
2023/07/25 01:25:46;;;;;;;9.20;5.75;;;;;;;13.07;100.00;100555.03;5286503;28;20131;-66
2023/07/25 01:28:17;;;;;;;10.30;5.47;;;;;;;13.19;100.00;100552.22;5286400;28;20040;-67
2023/07/25 01:30:49;;;;;;;9.38;6.18;;;;;;;13.23;100.00;100551.81;5290844;28;20035;-66
2023/07/25 01:33:20;;;;;;;10.27;5.57;;;;;;;13.03;100.00;100548.28;5289428;28;20033;-66
2023/07/25 01:35:51;;;;;;;10.20;5.95;;;;;;;13.07;100.00;100549.69;5294224;28;20043;-66
2023/07/25 01:38:23;;;;;;;12.05;6.07;;;;;;;12.95;100.00;100542.78;5283709;28;20064;-66
2023/07/25 01:40:54;;;;;;;11.07;6.30;;;;;;;13.15;100.00;100535.56;5284465;28;20103;-66
2023/07/25 01:43:25;;;;;;;9.40;6.15;;;;;;;13.06;100.00;100539.97;5288456;28;20028;-66
2023/07/25 01:45:57;;;;;;;10.93;6.30;;;;;;;13.03;100.00;100540.22;5291403;28;20478;-66
2023/07/25 01:48:29;;;;;;;8.70;6.45;;;;;;;12.93;100.00;100534.88;5285174;28;20107;-66
2023/07/25 01:51:00;;;;;;;13.32;6.13;;;;;;;12.82;100.00;100536.84;5290068;28;20020;-66
2023/07/25 01:53:32;;;;;;;13.85;6.30;;;;;;;12.86;100.00;100533.75;5286576;28;20029;-66
2023/07/25 01:56:03;;;;;;;10.48;7.10;;;;;;;12.93;100.00;100531.38;5287325;28;20028;-67
2023/07/25 01:58:34;;;;;;;9.18;6.90;;;;;;;12.92;100.00;100538.56;5293645;28;20107;-66
2023/07/25 02:01:06;;;;;;;9.82;6.75;;;;;;;12.93;100.00;100531.38;5291491;28;20077;-66
2023/07/25 02:03:37;;;;;;;13.32;6.47;;;;;;;12.88;100.00;100533.59;5293662;28;20670;-66
2023/07/25 02:06:08;;;;;;;11.82;6.30;;;;;;;12.85;100.00;100520.53;5286357;28;20032;-66
2023/07/25 02:08:40;;;;;;;12.13;6.97;;;;;;;12.88;100.00;100520.22;5301998;27;20055;-66
2023/07/25 02:11:11;;;;;;;11.77;6.85;;;;;;;12.82;100.00;100521.63;5312069;27;20031;-66
2023/07/25 02:13:43;;;;;;;13.18;7.13;;;;;;;12.80;100.00;100520.91;5310422;28;20020;-66
2023/07/25 02:16:14;;;;;;;12.02;7.03;;;;;;;12.75;100.00;100526.69;5310757;28;20539;-66
2023/07/25 02:18:45;;;;;;;11.77;7.10;;;;;;;12.82;100.00;100529.66;5312716;28;20544;-66
2023/07/25 02:21:17;;;;;;;11.50;6.55;;;;;;;12.69;100.00;100531.75;5313025;28;20084;-66
2023/07/25 02:23:48;;;;;;;10.15;6.25;;;;;;;12.61;100.00;100526.25;5306695;27;20461;-66
2023/07/25 02:26:20;;;;;;;13.50;6.88;;;;;;;12.67;100.00;100531.88;5309356;27;20092;-67
2023/07/25 02:28:51;;;;;;;11.15;6.95;;;;;;;12.64;100.00;100524.16;5312542;28;20023;-66
2023/07/25 02:31:22;;;;;;;9.52;6.22;;;;;;;12.64;100.00;100515.28;5314328;28;20077;-66
2023/07/25 02:33:54;;;;;;;8.50;6.55;;;;;;;12.70;100.00;100517.41;5312117;28;20032;-66
2023/07/25 02:36:25;;;;;;;13.98;7.43;;;;;;;12.75;100.00;100510.66;5314430;28;20085;-66
2023/07/25 02:38:57;;;;;;;12.10;6.43;;;;;;;12.61;100.00;100516.38;5308678;28;20035;-66
2023/07/25 02:41:28;;;;;;;13.52;6.90;;;;;;;12.65;100.00;100508.94;5306112;28;20028;-66
2023/07/25 02:43:59;;;;;;;9.40;6.72;;;;;;;12.50;100.00;100522.72;5305417;28;20054;-66
2023/07/25 02:46:31;;;;;;;10.15;6.43;;;;;;;12.57;100.00;100523.00;5304881;28;20080;-66
2023/07/25 02:49:02;;;;;;;10.98;7.30;;;;;;;12.57;100.00;100519.50;5309563;27;20096;-67
2023/07/25 02:51:33;;;;;;;10.98;7.25;;;;;;;12.64;100.00;100523.31;5308640;28;20370;-66
2023/07/25 02:54:05;;;;;;;14.60;7.13;;;;;;;12.60;100.00;100529.91;5307743;27;20030;-66
2023/07/25 02:56:36;;;;;;;12.60;8.10;;;;;;;12.63;100.00;100529.63;5305631;28;20024;-66
2023/07/25 02:59:08;;;;;;;12.63;7.38;;;;;;;12.56;100.00;100529.38;5311720;27;20490;-66
2023/07/25 03:01:39;;;;;;;11.18;7.05;;;;;;;12.58;100.00;100527.38;5306574;28;20019;-66
2023/07/25 03:04:10;;;;;;;10.70;7.10;;;;;;;12.59;100.00;100521.03;5305244;28;20460;-66
2023/07/25 03:06:42;;;;;;;13.98;7.75;;;;;;;12.57;100.00;100528.34;5309636;28;20027;-66
2023/07/25 03:09:13;;;;;;;11.98;7.28;;;;;;;12.55;100.00;100520.47;5308138;27;21273;-66
2023/07/25 03:11:44;;;;;;;12.07;7.47;;;;;;;12.75;100.00;100526.69;5310186;28;20027;-66
2023/07/25 03:14:16;;;;;;;12.85;7.88;;;;;;;12.78;100.00;100527.41;5309658;28;20028;-66
2023/07/25 03:16:48;;;;;;;12.00;8.10;;;;;;;12.82;100.00;100528.81;5309772;28;20848;-66
2023/07/25 03:19:19;;;;;;;13.50;7.50;;;;;;;12.66;100.00;100522.19;5307921;28;20038;-66
2023/07/25 03:21:51;;;;;;;10.40;7.47;;;;;;;12.81;100.00;100527.97;5313323;28;20475;-66
2023/07/25 03:24:22;;;;;;;9.85;6.93;;;;;;;12.70;100.00;100515.56;5310952;28;20038;-66
2023/07/25 03:26:53;;;;;;;16.38;7.57;;;;;;;12.77;100.00;100523.03;5312803;28;20722;-66
2023/07/25 03:29:25;;;;;;;10.98;7.00;;;;;;;12.68;100.00;100519.38;5308738;28;20047;-66
2023/07/25 03:31:56;;;;;;;16.92;8.45;;;;;;;12.87;100.00;100521.22;5308667;28;20024;-66
2023/07/25 03:34:28;;;;;;;11.13;6.40;;;;;;;12.73;100.00;100517.97;5310838;28;20031;-66
2023/07/25 03:36:59;;;;;;;10.63;6.70;;;;;;;12.66;100.00;100511.47;5308067;27;20076;-66
2023/07/25 03:39:30;;;;;;;8.98;7.00;;;;;;;12.81;100.00;100509.25;5308660;28;20116;-66
2023/07/25 03:42:02;;;;;;;11.40;7.00;;;;;;;12.68;100.00;100508.66;5307375;28;20047;-66
2023/07/25 03:44:33;;;;;;;11.00;7.20;;;;;;;12.73;100.00;100514.44;5303845;28;20032;-67
2023/07/25 03:47:05;;;;;;;11.60;6.72;;;;;;;12.89;100.00;100506.69;5313271;27;20106;-66
2023/07/25 03:49:36;;;;;;;12.05;7.97;;;;;;;12.92;100.00;100513.59;5306252;28;20024;-66
2023/07/25 03:52:07;;;;;;;13.32;7.50;;;;;;;12.88;100.00;100509.50;5308818;28;20042;-66
2023/07/25 03:54:39;;;;;;;14.48;7.35;;;;;;;12.92;100.00;100517.13;5307918;28;20080;-66
2023/07/25 03:57:10;;;;;;;12.20;7.32;;;;;;;12.85;100.00;100515.16;5312007;28;20031;-66
2023/07/25 03:59:41;;;;;;;10.68;7.20;;;;;;;12.96;100.00;100512.31;5303054;28;20110;-66
2023/07/25 04:02:13;;;;;;;10.98;6.43;;;;;;;12.92;100.00;100521.63;5311185;28;20508;-66
2023/07/25 04:04:44;;;;;;;11.07;7.10;;;;;;;12.84;100.00;100516.97;5310774;28;20076;-66
2023/07/25 04:07:15;;;;;;;10.77;6.25;;;;;;;12.83;100.00;100517.97;5307660;28;20521;-66
2023/07/25 04:09:47;;;;;;;10.18;7.05;;;;;;;12.86;100.00;100520.34;5306732;28;20131;-66
2023/07/25 04:12:18;;;;;;;15.70;8.98;;;;;;;12.81;100.00;100527.97;5310555;28;20087;-66
2023/07/25 04:14:50;;;;;;;11.15;7.40;;;;;;;12.78;100.00;100519.38;5304596;28;20019;-66
2023/07/25 04:17:21;;;;;;;12.48;7.15;;;;;;;12.73;100.00;100522.47;5309168;28;20412;-66
2023/07/25 04:19:52;;;;;;;10.60;6.43;;;;;;;12.85;100.00;100520.53;5312878;28;20442;-66
2023/07/25 04:22:24;;;;;;;10.90;6.15;;;;;;;12.80;100.00;100520.09;5312816;28;20027;-66
2023/07/25 04:24:55;;;;;;;11.85;6.95;;;;;;;12.68;100.00;100522.03;5306891;28;20536;-66
2023/07/25 04:27:30;;;;;;;11.68;7.22;;;;;;;12.74;100.00;100518.81;5309906;28;20664;-66
2023/07/25 04:30:02;;;;;;;10.80;6.88;;;;;;;12.63;100.00;100522.44;5307877;28;20466;-66
2023/07/25 04:32:34;;;;;;;12.20;7.28;;;;;;;12.62;100.00;100523.44;5310008;28;20027;-66
2023/07/25 04:35:05;;;;;;;14.15;7.07;;;;;;;12.71;100.00;100514.59;5304220;28;20453;-66
2023/07/25 04:37:37;;;;;;;12.30;7.00;;;;;;;12.66;100.00;100516.81;5305951;28;20599;-66
2023/07/25 04:40:09;;;;;;;10.80;6.47;;;;;;;12.62;100.00;100522.56;5303117;28;20084;-65
2023/07/25 04:42:40;;;;;;;12.43;7.22;;;;;;;12.62;100.00;100523.44;5307879;28;20023;-65
2023/07/25 04:45:11;;;;;;;10.90;6.82;;;;;;;12.69;100.00;100531.75;5305346;28;20031;-66
2023/07/25 04:47:43;;;;;;;11.30;7.28;;;;;;;12.86;100.00;100527.53;5309467;28;20046;-66
2023/07/25 04:50:14;;;;;;;10.00;6.80;;;;;;;12.77;100.00;100517.66;5308756;28;20024;-66
2023/07/25 04:52:46;;;;;;;11.30;6.93;;;;;;;12.76;100.00;100516.84;5306145;28;20824;-66
2023/07/25 04:55:17;;;;;;;12.57;6.93;;;;;;;12.72;100.00;100516.25;5306787;28;20035;-66
2023/07/25 04:57:50;;;;;;;13.40;7.70;;;;;;;12.62;100.00;100503.84;5309228;28;20051;-66
2023/07/25 05:00:21;;;;;;;13.05;7.97;;;;;;;12.60;100.00;100516.53;5309214;28;20039;-66
2023/07/25 05:02:53;;;;;;;15.88;8.40;;;;;;;12.75;100.00;100513.31;5306221;28;20034;-66
2023/07/25 05:05:24;;;;;;;13.73;8.57;;;;;;;12.94;100.00;100514.28;5304640;28;20039;-66
2023/07/25 05:07:55;;;;;;;14.55;8.73;;;;;;;12.92;100.00;100519.81;5306411;28;20186;-66
2023/07/25 05:10:27;;;;;;;12.07;7.95;;;;;;;13.09;100.00;100528.13;5305891;28;20020;-66
2023/07/25 05:12:58;;;;;;;12.95;6.68;;;;;;;12.98;100.00;100526.41;5306908;28;20573;-66
2023/07/25 05:15:29;;;;;;;10.93;6.47;;;;;;;12.99;100.00;100532.63;5305162;28;20027;-66
2023/07/25 05:18:01;;;;;;;13.15;7.82;;;;;;;13.16;100.00;100528.41;5309589;28;20028;-66
2023/07/25 05:20:32;;;;;;;9.13;6.22;;;;;;;13.13;100.00;100525.03;5303836;28;20030;-66
2023/07/25 05:23:04;;;;;;;14.35;7.80;;;;;;;13.24;100.00;100529.38;5303436;28;20081;-66
2023/07/25 05:25:35;;;;;;;11.65;5.88;;;;;;;13.17;100.00;100522.03;5310363;28;20029;-66
2023/07/25 05:28:07;;;;;;;13.32;6.07;;;;;;;13.24;100.00;100520.50;5305806;28;20122;-66
2023/07/25 05:30:38;;;;;;;13.35;5.80;;;;;;;13.35;100.00;100517.69;5306894;28;20027;-66
2023/07/25 05:33:09;;;;;;;9.88;5.30;;;;;;;13.31;100.00;100533.22;5312864;28;20027;-66
2023/07/25 05:35:41;;;;;;;11.13;4.82;;;;;;;13.32;100.00;100526.84;5307567;28;20032;-66
2023/07/25 05:38:12;;;;;;;11.82;5.30;;;;;;;13.33;100.00;100535.75;5309198;28;20488;-67
2023/07/25 05:40:43;;;;;;;9.48;5.00;;;;;;;13.43;100.00;100533.91;5303103;28;20025;-66
2023/07/25 05:43:16;;;;;;;11.10;4.95;;;;;;;13.46;100.00;100525.56;5309270;28;20099;-66
2023/07/25 05:45:48;;;;;;;8.98;5.07;;;;;;;13.53;100.00;100532.03;5308867;28;20461;-66
2023/07/25 05:48:19;;;;;;;6.28;5.03;;;;;;;13.62;100.00;100541.06;5308330;28;20042;-67
2023/07/25 05:50:51;;;;;;;10.13;4.78;;;;;;;13.63;100.00;100536.53;5309339;28;20290;-66
2023/07/25 05:53:23;;;;;;;12.05;4.85;;;;;;;13.65;100.00;100546.13;5307675;28;20057;-67
2023/07/25 05:55:54;;;;;;;10.05;4.20;;;;;;;13.72;100.00;100541.88;5308480;28;20035;-68
2023/07/25 05:58:26;;;;;;;9.68;4.75;;;;;;;13.88;100.00;100543.97;5307720;28;20031;-67
2023/07/25 06:00:57;;;;;;;10.43;4.13;;;;;;;13.94;100.00;100539.84;5297593;28;20027;-66
2023/07/25 06:03:28;;;;;;;7.90;3.80;;;;;;;13.92;100.00;100531.94;5305413;28;20027;-67
2023/07/25 06:06:00;;;;;;;10.35;4.18;;;;;;;14.00;100.00;100533.00;5299808;28;20020;-67
2023/07/25 06:08:31;;;;;;;9.18;3.60;;;;;;;14.03;100.00;100535.41;5305801;28;20057;-66
2023/07/25 06:11:03;;;;;;;11.05;4.07;;;;;;;14.06;100.00;100533.28;5315178;28;20160;-66
2023/07/25 06:13:34;;;;;;;11.27;3.80;;;;;;;14.08;100.00;100525.94;5312784;28;20470;-67
2023/07/25 06:16:05;;;;;;;11.10;3.60;;;;;;;14.09;100.00;100534.81;5311677;27;20036;-67
2023/07/25 06:18:37;;;;;;;6.63;3.03;;;;;;;14.13;100.00;100530.84;5308839;27;20034;-67
2023/07/25 06:21:08;;;;;;;8.23;3.58;;;;;;;14.12;100.00;100532.69;5315320;28;21482;-66
2023/07/25 06:23:40;;;;;;;6.85;3.42;;;;;;;14.17;100.00;100532.25;5315283;28;20026;-67
2023/07/25 06:26:11;;;;;;;12.30;3.47;;;;;;;14.15;100.00;100550.31;5312919;28;20043;-67
2023/07/25 06:28:43;;;;;;;8.85;2.97;;;;;;;14.23;100.00;100538.84;5313311;28;20051;-67
2023/07/25 06:31:15;;;;;;;8.02;3.40;;;;;;;14.35;100.00;100550.25;5314890;28;20516;-67
2023/07/25 06:33:46;;;;;;;8.13;3.30;;;;;;;14.40;100.00;100550.63;5312409;28;20165;-67
2023/07/25 06:36:19;;;;;;;9.38;3.63;;;;;;;14.39;100.00;100549.78;5314065;28;20054;-67
2023/07/25 06:38:50;;;;;;;5.90;3.17;;;;;;;14.55;100.00;100550.97;5313519;27;20024;-67
2023/07/25 06:41:21;;;;;;;9.05;3.70;;;;;;;14.62;100.00;100544.03;5313913;27;20492;-67
2023/07/25 06:43:53;;;;;;;34.53;12.50;;;;;;;14.67;100.00;100547.97;5300124;27;20027;-67
2023/07/25 06:46:24;;;;;;;8.85;3.88;;;;;;;14.70;100.00;100555.69;5311680;27;20029;-67
2023/07/25 06:48:56;;;;;;;10.98;4.10;;;;;;;14.73;100.00;100551.03;5312772;28;20058;-67
2023/07/25 06:51:27;;;;;;;7.30;4.00;;;;;;;14.83;100.00;100549.13;5309321;27;20051;-67
2023/07/25 06:53:59;;;;;;;8.63;3.83;;;;;;;14.89;100.00;100543.97;5312264;28;20099;-67
2023/07/25 06:56:30;;;;;;;9.40;3.47;;;;;;;15.00;100.00;100536.72;5314490;27;20020;-67
2023/07/25 06:59:01;;;;;;;9.23;3.33;;;;;;;15.14;100.00;100535.31;5313444;28;20031;-67
2023/07/25 07:01:33;;;;;;;10.13;3.45;;;;;;;15.28;100.00;100542.81;5315720;28;20073;-67
2023/07/25 07:04:04;;;;;;;11.75;3.60;;;;;;;15.36;100.00;100542.91;5312387;28;20114;-67
2023/07/25 07:06:35;;;;;;;8.65;3.13;;;;;;;15.47;100.00;100536.41;5316259;28;20073;-67
2023/07/25 07:09:07;;;;;;;6.75;2.45;;;;;;;15.52;100.00;100546.72;5312480;27;20038;-67
2023/07/25 07:11:39;;;;;;;8.27;3.17;;;;;;;15.62;100.00;100547.44;5314605;28;20363;-67
2023/07/25 07:14:11;;;;;;;9.05;2.70;;;;;;;15.73;100.00;100557.97;5309074;28;20024;-67
2023/07/25 07:16:42;;;;;;;8.70;3.00;;;;;;;15.92;100.00;100558.78;5292663;28;20316;-67
2023/07/25 07:19:13;;;;;;;9.23;3.00;;;;;;;16.03;100.00;100556.66;5308721;27;20054;-67
2023/07/25 07:21:45;;;;;;;8.77;2.58;;;;;;;16.03;100.00;100555.78;5308507;28;20431;-67
2023/07/25 07:24:16;;;;;;;9.63;2.58;;;;;;;16.06;100.00;100555.47;5305913;28;20072;-67
2023/07/25 07:26:47;;;;;;;7.97;2.00;;;;;;;16.07;100.00;100554.50;5305334;28;20055;-67
2023/07/25 07:29:19;;;;;;;8.20;2.88;;;;;;;16.17;100.00;100551.66;5306754;28;20069;-67
2023/07/25 07:31:50;;;;;;;7.93;2.10;;;;;;;16.16;100.00;100541.91;5314731;28;20028;-68
2023/07/25 07:34:21;;;;;;;8.65;2.10;;;;;;;16.18;100.00;100548.78;5311079;28;20160;-67
2023/07/25 07:36:53;;;;;;;8.32;2.03;;;;;;;16.23;100.00;100546.47;5314005;28;20023;-67
2023/07/25 07:39:25;;;;;;;6.65;1.80;;;;;;;16.22;100.00;100554.69;5315954;27;20027;-67
2023/07/25 07:41:56;;;;;;;7.93;1.77;;;;;;;16.24;100.00;100553.56;5313656;28;20054;-67
2023/07/25 07:44:27;;;;;;;9.00;1.70;;;;;;;16.19;100.00;100553.19;5312420;28;20030;-67
2023/07/25 07:46:59;;;;;;;8.02;2.28;;;;;;;16.21;100.00;100559.25;5314730;28;20120;-67
2023/07/25 07:49:32;;;;;;;6.10;1.67;;;;;;;16.18;100.00;100562.25;5315744;27;20028;-67
2023/07/25 07:52:04;;;;;;;7.07;1.90;;;;;;;16.11;100.00;100560.38;5308968;28;20024;-67
2023/07/25 07:54:35;;;;;;;6.70;1.50;;;;;;;16.03;100.00;100571.94;5316717;28;20031;-67
2023/07/25 07:57:07;;;;;;;8.23;1.80;;;;;;;16.04;100.00;100576.31;5316690;27;20385;-67
2023/07/25 07:59:38;;;;;;;7.80;1.75;;;;;;;15.97;100.00;100572.56;5311110;28;20104;-67
2023/07/25 08:02:10;;;;;;;6.15;1.50;;;;;;;15.95;100.00;100575.41;5313337;28;20045;-67
2023/07/25 08:04:41;;;;;;;6.18;1.70;;;;;;;16.05;100.00;100575.31;5312504;28;20389;-67
2023/07/25 08:07:12;;;;;;;6.03;1.65;;;;;;;16.02;100.00;100581.03;5313717;28;20141;-67
2023/07/25 08:09:44;;;;;;;6.75;1.35;;;;;;;16.04;100.00;100582.53;5308192;28;20056;-67
2023/07/25 08:12:15;;;;;;;5.65;1.45;;;;;;;16.26;100.00;100588.38;5316659;28;20374;-67
2023/07/25 08:14:46;;;;;;;4.57;1.30;;;;;;;16.29;100.00;100581.84;5315713;28;20394;-67
2023/07/25 08:17:18;;;;;;;5.82;1.25;;;;;;;16.40;100.00;100589.63;5313694;28;20024;-67
2023/07/25 08:19:50;;;;;;;4.80;1.35;;;;;;;16.47;100.00;100574.50;5309478;28;20020;-68
2023/07/25 08:22:21;;;;;;;6.05;1.30;;;;;;;16.49;100.00;100577.88;5313781;28;20035;-68
2023/07/25 08:24:53;;;;;;;9.35;1.20;;;;;;;16.59;100.00;100578.59;5311198;28;20026;-68
2023/07/25 08:27:25;;;;;;;5.68;1.20;;;;;;;16.57;100.00;100580.59;5298310;28;20110;-67
2023/07/25 08:29:56;;;;;;;6.55;1.30;;;;;;;16.54;100.00;100580.94;5315428;28;20031;-67
2023/07/25 08:32:28;;;;;;;7.82;1.35;;;;;;;16.47;100.00;100582.56;5317515;28;20024;-68
2023/07/25 08:34:59;;;;;;;6.68;1.10;;;;;;;16.39;100.00;100588.75;5316123;28;20024;-68
2023/07/25 08:37:30;;;;;;;6.13;1.20;;;;;;;16.37;100.00;100582.69;5310336;28;20034;-68
2023/07/25 08:40:02;;;;;;;7.28;1.52;;;;;;;16.39;100.00;100596.84;5310096;28;20081;-68
2023/07/25 08:42:36;;;;;;;5.63;1.10;;;;;;;16.45;100.00;100595.34;5307842;28;20070;-68
2023/07/25 08:45:09;;;;;;;5.20;1.33;;;;;;;16.45;100.00;100590.84;5313080;28;20077;-68
2023/07/25 08:47:42;;;;;;;5.95;1.23;;;;;;;16.65;100.00;100599.47;5314117;28;20126;-68
2023/07/25 08:50:17;;;;;;;7.65;1.20;;;;;;;16.85;100.00;100604.63;5316626;28;20047;-68
2023/07/25 08:52:51;;;;;;;6.05;1.02;;;;;;;16.88;100.00;100607.00;5315025;28;20084;-68
2023/07/25 08:55:23;;;;;;;6.85;1.35;;;;;;;17.01;100.00;100604.69;5308903;28;20125;-68
2023/07/25 08:57:55;;;;;;;5.75;1.33;;;;;;;17.12;100.00;100603.50;5311614;28;20594;-68
2023/07/25 09:00:27;;;;;;;6.22;1.23;;;;;;;17.22;100.00;100598.81;5316631;28;20130;-68
2023/07/25 09:02:59;;;;;;;5.45;1.10;;;;;;;17.24;100.00;100598.66;5311276;28;20647;-68
2023/07/25 09:05:31;;;;;;;4.15;1.00;;;;;;;17.44;100.00;100604.56;5302968;28;20461;-68
2023/07/25 09:08:02;;;;;;;7.10;1.25;;;;;;;17.72;100.00;100596.09;5307169;28;20063;-68
2023/07/25 09:10:34;;;;;;;4.57;1.08;;;;;;;17.72;100.00;100602.34;5305707;28;20024;-68
2023/07/25 09:13:06;;;;;;;5.22;1.23;;;;;;;17.73;100.00;100598.63;5307232;28;20629;-68
2023/07/25 09:15:39;;;;;;;6.60;1.30;;;;;;;17.96;100.00;100600.66;5310889;28;20650;-68
2023/07/25 09:18:10;;;;;;;4.88;1.15;;;;;;;18.05;100.00;100599.63;5313457;28;20031;-68
2023/07/25 09:20:42;;;;;;;5.95;1.23;;;;;;;18.14;100.00;100595.91;5315964;28;20092;-68
2023/07/25 09:23:21;;;;;;;6.47;1.50;;;;;;;18.37;100.00;100598.69;5316822;28;20100;-68
2023/07/25 09:26:04;;;;;;;7.60;1.27;;;;;;;18.42;100.00;100600.84;5313362;28;20023;-68
2023/07/25 09:28:46;;;;;;;6.15;1.38;;;;;;;18.33;100.00;100596.50;5315954;28;20036;-68
2023/07/25 09:31:19;;;;;;;5.72;1.20;;;;;;;18.65;100.00;100600.09;5316627;28;20063;-69
2023/07/25 09:33:52;;;;;;;5.03;1.10;;;;;;;18.64;100.00;100593.84;5314869;28;20023;-68
2023/07/25 09:36:28;;;;;;;5.30;1.63;;;;;;;18.58;100.00;100603.50;5313543;28;20032;-69
2023/07/25 09:39:00;;;;;;;4.65;1.15;;;;;;;18.63;100.00;100596.72;5316375;28;20103;-68
2023/07/25 09:41:35;;;;;;;7.45;1.15;;;;;;;18.45;100.00;100602.34;5315223;28;20049;-68
2023/07/25 09:44:06;;;;;;;5.68;1.20;;;;;;;18.31;100.00;100607.47;5314295;28;20020;-68
2023/07/25 09:46:38;;;;;;;4.93;1.10;;;;;;;18.18;100.00;100607.22;5310396;28;20626;-69
2023/07/25 09:49:09;;;;;;;5.90;1.42;;;;;;;18.13;100.00;100615.81;5314368;27;20474;-68
2023/07/25 09:51:56;;;;;;;4.85;1.25;;;;;;;18.05;100.00;100610.44;5297162;28;20590;-68
2023/07/25 09:54:28;;;;;;;6.22;1.10;;;;;;;18.14;100.00;100616.63;5314218;28;20035;-68
2023/07/25 09:56:59;;;;;;;4.78;1.00;;;;;;;18.23;100.00;100602.94;5315852;28;20046;-68
2023/07/25 09:59:31;;;;;;;6.45;1.10;;;;;;;18.48;100.00;100610.13;5315969;28;20499;-68
2023/07/25 10:02:06;;;;;;;6.55;1.35;;;;;;;18.67;100.00;100607.00;5310786;28;20035;-68
2023/07/25 10:04:39;;;;;;;7.00;1.45;;;;;;;18.63;100.00;100610.25;5309240;28;20094;-69
2023/07/25 10:07:11;;;;;;;3.13;0.80;;;;;;;18.50;100.00;100606.22;5311715;27;20036;-68
2023/07/25 10:09:45;;;;;;;5.10;1.05;;;;;;;18.30;100.00;100607.66;5310972;28;20046;-68
2023/07/25 10:12:16;;;;;;;5.82;0.90;;;;;;;18.31;100.00;100604.78;5312505;28;20035;-68
2023/07/25 10:14:48;;;;;;;7.68;1.10;;;;;;;18.20;100.00;100611.41;5308701;28;20104;-69
2023/07/25 10:17:19;;;;;;;3.88;0.85;;;;;;;18.25;100.00;100612.75;5317338;28;20028;-68
2023/07/25 10:19:54;;;;;;;5.57;1.17;;;;;;;18.16;100.00;100615.47;5315114;27;20019;-68
2023/07/25 10:22:37;;;;;;;3.40;0.82;;;;;;;18.21;100.00;100613.06;5320138;27;20037;-68
2023/07/25 10:25:16;;;;;;;6.20;1.02;;;;;;;18.16;100.00;100607.38;5310144;28;20420;-68
2023/07/25 10:27:53;;;;;;;5.80;1.50;;;;;;;18.15;100.00;100600.28;5317293;28;20537;-68
2023/07/25 10:30:26;;;;;;;5.18;1.05;;;;;;;18.29;100.00;100608.66;5318074;28;20458;-68
2023/07/25 10:33:01;;;;;;;4.40;0.98;;;;;;;18.40;100.00;100606.44;5324189;27;20491;-69
2023/07/25 10:35:54;;;;;;;2.92;0.82;;;;;;;18.63;100.00;100602.97;5310388;28;20148;-68
2023/07/25 10:38:32;;;;;;;4.75;1.30;;;;;;;18.63;100.00;100602.97;5319170;27;20069;-69
2023/07/25 10:41:08;;;;;;;5.25;1.20;;;;;;;18.83;100.00;100611.53;5311906;27;20107;-69
2023/07/25 10:44:00;;;;;;;4.63;1.15;;;;;;;18.86;100.00;100605.75;5317270;28;20077;-68
2023/07/25 10:46:33;;;;;;;5.22;1.20;;;;;;;18.81;100.00;100602.72;5306619;28;20144;-69
2023/07/25 10:49:16;;;;;;;5.43;1.17;;;;;;;18.58;100.00;100608.91;5311151;28;20031;-68
2023/07/25 10:51:53;;;;;;;4.75;1.15;;;;;;;18.49;100.00;100609.13;5312509;28;20035;-69
2023/07/25 10:54:25;;;;;;;6.63;1.20;;;;;;;18.49;100.00;100614.53;5306665;28;20023;-69
2023/07/25 10:57:14;;;;;;;6.45;1.42;;;;;;;18.46;100.00;100601.34;5318955;28;20464;-69
2023/07/25 11:00:04;;;;;;;2.75;1.00;;;;;;;18.55;100.00;100598.44;5312519;28;20035;-68
2023/07/25 11:02:40;;;;;;;5.55;1.10;;;;;;;18.77;100.00;100612.19;5315332;28;20031;-68
2023/07/25 11:05:12;;;;;;;3.75;0.85;;;;;;;18.93;100.00;100601.31;5317147;28;20055;-69
2023/07/25 11:07:46;;;;;;;2.75;0.90;;;;;;;19.05;100.00;100598.22;5305971;28;20122;-70
2023/07/25 11:10:21;;;;;;;5.30;1.10;;;;;;;19.32;100.00;100605.78;5306156;28;20024;-69
2023/07/25 11:13:00;;;;;;;5.75;0.98;;;;;;;19.25;100.00;100594.00;5311019;28;20041;-69
2023/07/25 11:15:32;;;;;;;5.45;1.10;;;;;;;19.18;100.00;100604.72;5313946;28;20150;-69
2023/07/25 11:18:06;;;;;;;4.90;1.00;;;;;;;19.00;100.00;100607.72;5312042;28;20521;-69
2023/07/25 11:20:38;;;;;;;3.80;0.95;;;;;;;18.88;100.00;100601.00;5317136;28;20020;-69
2023/07/25 11:23:10;;;;;;;5.28;1.40;;;;;;;18.60;100.00;100611.41;5313897;28;20020;-69
2023/07/25 11:25:52;;;;;;;4.13;1.02;;;;;;;18.55;100.00;100611.13;5319116;28;20079;-69
2023/07/25 11:28:24;;;;;;;4.75;0.98;;;;;;;18.48;100.00;100605.56;5312050;28;20046;-69
2023/07/25 11:30:55;;;;;;;5.00;0.90;;;;;;;18.53;100.00;100605.06;5316065;28;20019;-69
2023/07/25 11:33:36;;;;;;;4.57;1.20;;;;;;;18.51;100.00;100607.09;5317222;27;20382;-69
2023/07/25 11:36:07;;;;;;;5.38;0.93;;;;;;;18.59;100.00;100598.94;5312156;28;20444;-70
2023/07/25 11:38:39;;;;;;;4.80;0.93;;;;;;;18.84;100.00;100601.56;5315245;28;20027;-69